Time;durP1;ratioP1;P1;durP2;ratioP2;P2;SDS_P1;SDS_P2;PMS_P1;PMS_P2;Temp;Humidity;BMP_temperature;BMP_pressure;BME280_temperature;BME280_humidity;BME280_pressure;Samples;Min_cycle;Max_cycle;Signal;HPM_P1;HPM_P2
2021/08/24 00:02:00;;;;;;;;;;;25.80;61.00;;;;;;4991059;28;20020;-62
2021/08/24 00:04:27;;;;;;;;;;;25.80;61.00;;;;;;4992154;28;19972;-62
2021/08/24 00:06:54;;;;;;;;;;;25.80;60.90;;;;;;4992511;28;19987;-62
2021/08/24 00:09:21;;;;;;;;;;;25.80;61.00;;;;;;4992481;28;19926;-62
2021/08/24 00:11:47;;;;;;;;;;;25.80;60.90;;;;;;4992158;28;20005;-62
2021/08/24 00:14:15;;;;;;;;;;;25.70;60.80;;;;;;4975136;28;19991;-63
2021/08/24 00:16:42;;;;;;;;;;;25.80;60.90;;;;;;4992335;28;19932;-62
2021/08/24 00:19:09;;;;;;;;;;;25.80;60.90;;;;;;4992052;28;20025;-62
2021/08/24 00:21:37;;;;;;;;;;;25.80;60.90;;;;;;4991125;28;20021;-62
2021/08/24 00:24:05;;;;;;;;;;;25.80;60.90;;;;;;4991872;28;19965;-62
2021/08/24 00:26:31;;;;;;;;;;;25.70;60.80;;;;;;4975086;28;20436;-62
2021/08/24 00:28:58;;;;;;;;;;;25.80;60.90;;;;;;4991447;28;20016;-62
2021/08/24 00:31:25;;;;;;;;;;;25.80;60.90;;;;;;4991699;28;19983;-63
2021/08/24 00:33:52;;;;;;;;;;;25.80;60.90;;;;;;4991196;28;19925;-62
2021/08/24 00:36:19;;;;;;;;;;;25.80;61.00;;;;;;4992173;28;19980;-62
2021/08/24 00:38:47;;;;;;;;;;;25.80;60.90;;;;;;4991718;28;19926;-63
2021/08/24 00:41:15;;;;;;;;;;;25.80;60.90;;;;;;4990644;28;19926;-63
2021/08/24 00:43:43;;;;;;;;;;;25.80;60.90;;;;;;4991685;28;19961;-62
2021/08/24 00:46:25;;;;;;;;;;;25.80;60.90;;;;;;4991810;28;19965;-61
2021/08/24 00:48:52;;;;;;;;;;;25.80;60.90;;;;;;4991843;28;19925;-62
2021/08/24 00:51:23;;;;;;;;;;;25.80;60.90;;;;;;4990367;28;20012;-62
2021/08/24 00:53:50;;;;;;;;;;;25.80;60.90;;;;;;4990325;28;20325;-62
2021/08/24 00:56:18;;;;;;;;;;;25.80;60.90;;;;;;4990344;28;19926;-62
2021/08/24 00:58:45;;;;;;;;;;;25.80;60.90;;;;;;4991347;28;20016;-62
2021/08/24 01:01:12;;;;;;;;;;;25.80;60.90;;;;;;4990801;28;20024;-62
2021/08/24 01:03:43;;;;;;;;;;;25.70;60.80;;;;;;4991457;28;20013;-63
2021/08/24 01:06:13;;;;;;;;;;;25.80;60.90;;;;;;4991376;28;20123;-63
2021/08/24 01:09:03;;;;;;;;;;;25.70;60.80;;;;;;4991317;28;19926;-63
2021/08/24 01:11:54;;;;;;;;;;;25.80;60.90;;;;;;4985303;28;19965;-62
2021/08/24 01:14:30;;;;;;;;;;;25.80;60.90;;;;;;4991441;28;19933;-62
2021/08/24 01:17:12;;;;;;;;;;;25.80;60.90;;;;;;4990977;28;19925;-63
2021/08/24 01:19:40;;;;;;;;;;;25.70;60.70;;;;;;4991023;28;20008;-62
2021/08/24 01:22:22;;;;;;;;;;;25.80;60.90;;;;;;4991311;28;19937;-62
2021/08/24 01:24:51;;;;;;;;;;;25.80;60.90;;;;;;4990830;28;19972;-62
2021/08/24 01:27:38;;;;;;;;;;;25.80;60.90;;;;;;4991099;28;19965;-62
2021/08/24 01:30:17;;;;;;;;;;;25.80;60.90;;;;;;4991252;28;19933;-62
2021/08/24 01:32:50;;;;;;;;;;;25.80;60.90;;;;;;4990281;28;20106;-62
2021/08/24 01:35:42;;;;;;;;;;;25.80;60.90;;;;;;4991213;28;19926;-63
2021/08/24 01:38:12;;;;;;;;;;;25.70;60.80;;;;;;4990500;28;19926;-62
2021/08/24 01:40:48;;;;;;;;;;;25.70;60.80;;;;;;4972368;28;19972;-62
2021/08/24 01:43:20;;;;;;;;;;;25.80;60.90;;;;;;4990492;28;19930;-63
2021/08/24 01:45:49;;;;;;;;;;;25.70;60.80;;;;;;4991095;28;19969;-63
2021/08/24 01:48:32;;;;;;;;;;;25.70;60.80;;;;;;4990235;28;19957;-62
2021/08/24 01:51:01;;;;;;;;;;;25.80;60.90;;;;;;4990305;28;19980;-62
2021/08/24 01:53:43;;;;;;;;;;;25.80;60.80;;;;;;4990879;28;19932;-62
2021/08/24 01:56:11;;;;;;;;;;;25.70;60.70;;;;;;4990421;28;19926;-62
2021/08/24 01:58:41;;;;;;;;;;;25.80;60.80;;;;;;4989791;28;20008;-63
2021/08/24 02:01:10;;;;;;;;;;;25.70;60.80;;;;;;4990926;28;19926;-62
2021/08/24 02:03:40;;;;;;;;;;;25.80;60.90;;;;;;4990942;28;20021;-62
2021/08/24 02:06:12;;;;;;;;;;;25.70;60.80;;;;;;4990442;28;20012;-62
2021/08/24 02:08:41;;;;;;;;;;;25.70;60.80;;;;;;4989440;28;19925;-63
2021/08/24 02:11:08;;;;;;;;;;;25.70;60.80;;;;;;4990488;28;19933;-63
2021/08/24 02:13:43;;;;;;;;;;;25.70;60.80;;;;;;4988649;28;20624;-62
2021/08/24 02:16:22;;;;;;;;;;;25.70;60.80;;;;;;4990430;28;20032;-63
2021/08/24 02:18:52;;;;;;;;;;;25.70;60.80;;;;;;4990396;28;19926;-62
2021/08/24 02:21:25;;;;;;;;;;;25.70;60.80;;;;;;4989974;28;20016;-63
2021/08/24 02:23:54;;;;;;;;;;;25.70;60.80;;;;;;4990221;28;19926;-62
2021/08/24 02:26:24;;;;;;;;;;;25.70;60.80;;;;;;4989126;28;19964;-62
2021/08/24 02:28:53;;;;;;;;;;;25.70;60.80;;;;;;4990029;28;20016;-62
2021/08/24 02:31:24;;;;;;;;;;;25.70;60.80;;;;;;4990326;28;20012;-62
2021/08/24 02:33:54;;;;;;;;;;;25.70;60.80;;;;;;4990176;28;19934;-62
2021/08/24 02:36:22;;;;;;;;;;;25.80;60.90;;;;;;4988835;28;20006;-62
2021/08/24 02:39:11;;;;;;;;;;;25.70;60.70;;;;;;4989270;28;19957;-62
2021/08/24 02:41:45;;;;;;;;;;;25.70;60.70;;;;;;4982211;28;19930;-62
2021/08/24 02:44:14;;;;;;;;;;;25.70;60.70;;;;;;4989311;28;19965;-62
2021/08/24 02:46:45;;;;;;;;;;;25.80;60.90;;;;;;4990155;28;19969;-62
2021/08/24 02:49:14;;;;;;;;;;;25.70;60.70;;;;;;4990038;28;19926;-64
2021/08/24 02:51:41;;;;;;;;;;;25.70;60.70;;;;;;4990274;28;19980;-62
2021/08/24 02:54:14;;;;;;;;;;;25.70;60.80;;;;;;4969566;28;19927;-62
2021/08/24 02:56:41;;;;;;;;;;;25.70;60.80;;;;;;4983151;28;20403;-62
2021/08/24 02:59:08;;;;;;;;;;;25.70;60.80;;;;;;4989777;28;19926;-62
2021/08/24 03:01:35;;;;;;;;;;;25.70;60.90;;;;;;4988858;28;19971;-63
2021/08/24 03:04:04;;;;;;;;;;;25.70;60.90;;;;;;4990039;28;19960;-62
2021/08/24 03:06:32;;;;;;;;;;;25.70;60.90;;;;;;4988872;28;19925;-62
2021/08/24 03:08:59;;;;;;;;;;;25.70;60.90;;;;;;4989479;28;19926;-62
2021/08/24 03:11:28;;;;;;;;;;;25.70;60.80;;;;;;4989622;28;19969;-62
2021/08/24 03:14:02;;;;;;;;;;;25.70;60.80;;;;;;4989995;28;20327;-62
2021/08/24 03:16:33;;;;;;;;;;;25.70;60.80;;;;;;4989480;28;19973;-62
2021/08/24 03:19:03;;;;;;;;;;;25.70;60.80;;;;;;4989869;28;19925;-62
2021/08/24 03:21:32;;;;;;;;;;;25.70;60.80;;;;;;4990027;28;19933;-62
2021/08/24 03:24:01;;;;;;;;;;;25.70;60.80;;;;;;4989479;28;19926;-62
2021/08/24 03:26:29;;;;;;;;;;;25.70;60.70;;;;;;4991532;28;19926;-62
2021/08/24 03:28:56;;;;;;;;;;;25.70;60.70;;;;;;4991486;28;20002;-63
2021/08/24 03:31:25;;;;;;;;;;;25.70;60.70;;;;;;4991744;28;19925;-63
2021/08/24 03:33:52;;;;;;;;;;;25.70;60.70;;;;;;4975773;28;19926;-62
2021/08/24 03:36:19;;;;;;;;;;;25.70;60.70;;;;;;4988585;28;19926;-62
2021/08/24 03:38:45;;;;;;;;;;;25.70;60.70;;;;;;4992736;28;19930;-62
2021/08/24 03:41:12;;;;;;;;;;;25.70;60.70;;;;;;4993089;28;20000;-63
2021/08/24 03:43:39;;;;;;;;;;;25.70;60.80;;;;;;4991836;28;20009;-62
2021/08/24 03:46:07;;;;;;;;;;;25.70;60.80;;;;;;4992649;28;19926;-63
2021/08/24 03:48:34;;;;;;;;;;;25.70;60.70;;;;;;4991738;28;19936;-62
2021/08/24 03:51:01;;;;;;;;;;;25.70;60.80;;;;;;4992344;28;19926;-62
2021/08/24 03:53:28;;;;;;;;;;;25.70;60.70;;;;;;4992688;28;19983;-63
2021/08/24 03:55:55;;;;;;;;;;;25.70;60.70;;;;;;4991106;28;19926;-62
2021/08/24 03:58:22;;;;;;;;;;;25.70;60.70;;;;;;4991043;28;19926;-62
2021/08/24 04:00:49;;;;;;;;;;;25.70;60.70;;;;;;4992287;28;20456;-62
2021/08/24 04:03:16;;;;;;;;;;;25.70;60.70;;;;;;4991097;28;20444;-61
2021/08/24 04:05:44;;;;;;;;;;;25.70;60.70;;;;;;4992218;28;19926;-62
2021/08/24 04:08:11;;;;;;;;;;;25.70;60.70;;;;;;4991404;28;19932;-62
2021/08/24 04:10:39;;;;;;;;;;;25.70;60.80;;;;;;4992101;28;19968;-62
2021/08/24 04:13:06;;;;;;;;;;;25.70;60.70;;;;;;4992019;28;20021;-62
2021/08/24 04:15:34;;;;;;;;;;;25.70;60.70;;;;;;4991473;28;19933;-62
2021/08/24 04:18:01;;;;;;;;;;;25.70;60.70;;;;;;4992320;28;19976;-62
2021/08/24 04:20:28;;;;;;;;;;;25.70;60.70;;;;;;4992252;28;19948;-64
2021/08/24 04:22:55;;;;;;;;;;;25.70;60.80;;;;;;4975023;28;19926;-62
2021/08/24 04:25:22;;;;;;;;;;;25.70;60.80;;;;;;4990948;28;19933;-62
2021/08/24 04:27:49;;;;;;;;;;;25.70;60.70;;;;;;4991869;28;20025;-62
2021/08/24 04:30:17;;;;;;;;;;;25.70;60.70;;;;;;4974892;28;19929;-62
2021/08/24 04:32:45;;;;;;;;;;;25.70;60.70;;;;;;4992337;28;20288;-61
2021/08/24 04:35:13;;;;;;;;;;;25.70;60.70;;;;;;4992018;28;19981;-62
2021/08/24 04:37:40;;;;;;;;;;;25.70;60.70;;;;;;4991615;28;19929;-63
2021/08/24 04:40:08;;;;;;;;;;;25.70;60.60;;;;;;4973808;28;19932;-62
2021/08/24 04:42:35;;;;;;;;;;;25.70;60.60;;;;;;4992004;28;19925;-62
2021/08/24 04:45:02;;;;;;;;;;;25.70;60.60;;;;;;4990893;28;19925;-62
2021/08/24 04:47:29;;;;;;;;;;;25.70;60.60;;;;;;4991598;28;20005;-62
2021/08/24 04:49:56;;;;;;;;;;;25.70;60.50;;;;;;4991968;28;19930;-62
2021/08/24 04:52:23;;;;;;;;;;;25.70;60.60;;;;;;4991929;28;19969;-62
2021/08/24 04:54:50;;;;;;;;;;;25.70;60.50;;;;;;4991416;28;19925;-62
2021/08/24 04:57:17;;;;;;;;;;;25.70;60.50;;;;;;4990131;28;20008;-62
2021/08/24 04:59:44;;;;;;;;;;;25.70;60.60;;;;;;4991486;28;19932;-62
2021/08/24 05:02:11;;;;;;;;;;;25.70;60.60;;;;;;4991225;28;19926;-62
2021/08/24 05:04:38;;;;;;;;;;;25.70;60.60;;;;;;4990482;28;20289;-62
2021/08/24 05:07:05;;;;;;;;;;;25.70;61.30;;;;;;4991511;28;19926;-62
2021/08/24 05:09:33;;;;;;;;;;;25.70;60.60;;;;;;4983027;28;19960;-62
2021/08/24 05:12:00;;;;;;;;;;;25.70;60.50;;;;;;4991504;28;19969;-62
2021/08/24 05:14:26;;;;;;;;;;;25.70;60.50;;;;;;4991604;28;20565;-62
2021/08/24 05:16:57;;;;;;;;;;;25.70;60.50;;;;;;4991494;28;20001;-62
2021/08/24 05:19:25;;;;;;;;;;;25.70;60.40;;;;;;4991270;28;19926;-63
2021/08/24 05:21:52;;;;;;;;;;;25.70;60.40;;;;;;4990423;28;19992;-63
2021/08/24 05:24:19;;;;;;;;;;;25.70;61.10;;;;;;4991491;28;19926;-62
2021/08/24 05:26:45;;;;;;;;;;;25.70;60.30;;;;;;4990184;28;19926;-62
2021/08/24 05:29:16;;;;;;;;;;;25.80;60.40;;;;;;4991080;28;19932;-63
2021/08/24 05:31:43;;;;;;;;;;;25.80;60.40;;;;;;4990551;28;19926;-62
2021/08/24 05:34:10;;;;;;;;;;;25.80;60.30;;;;;;4991336;28;19926;-62
2021/08/24 05:36:37;;;;;;;;;;;25.70;60.20;;;;;;4990244;28;19973;-62
2021/08/24 05:39:04;;;;;;;;;;;25.80;60.40;;;;;;4990835;28;19991;-62
2021/08/24 05:41:31;;;;;;;;;;;25.70;60.20;;;;;;4989739;28;19926;-62
2021/08/24 05:43:58;;;;;;;;;;;25.80;60.30;;;;;;4990774;28;19937;-63
2021/08/24 05:46:25;;;;;;;;;;;25.80;60.20;;;;;;4991141;28;20021;-63
2021/08/24 05:48:52;;;;;;;;;;;25.80;60.30;;;;;;4971568;28;20362;-62
2021/08/24 05:51:20;;;;;;;;;;;25.80;60.20;;;;;;4990897;28;19926;-62
2021/08/24 05:53:47;;;;;;;;;;;25.80;60.20;;;;;;4989678;28;20028;-62
2021/08/24 05:56:16;;;;;;;;;;;25.80;60.20;;;;;;4989357;28;19972;-63
2021/08/24 05:58:43;;;;;;;;;;;25.80;60.10;;;;;;4990322;28;20005;-63
2021/08/24 06:01:16;;;;;;;;;;;25.80;60.10;;;;;;4989419;28;19929;-63
2021/08/24 06:03:43;;;;;;;;;;;25.80;60.10;;;;;;4990718;28;19926;-63
2021/08/24 06:06:17;;;;;;;;;;;25.80;60.00;;;;;;4989874;28;19933;-63
2021/08/24 06:08:44;;;;;;;;;;;25.80;60.10;;;;;;4973432;28;20424;-62
2021/08/24 06:11:19;;;;;;;;;;;25.80;60.10;;;;;;4990660;28;19926;-63
2021/08/24 06:13:46;;;;;;;;;;;25.80;60.10;;;;;;4990622;28;19932;-62
2021/08/24 06:16:16;;;;;;;;;;;25.80;60.10;;;;;;4990219;28;20016;-62
2021/08/24 06:18:43;;;;;;;;;;;25.80;60.00;;;;;;4989517;28;19969;-62
2021/08/24 06:21:10;;;;;;;;;;;25.80;60.00;;;;;;4990411;28;19939;-63
2021/08/24 06:23:37;;;;;;;;;;;25.80;60.00;;;;;;4988956;28;19961;-62
2021/08/24 06:26:04;;;;;;;;;;;25.80;60.00;;;;;;4990397;28;19945;-63
2021/08/24 06:28:31;;;;;;;;;;;25.80;60.10;;;;;;4989360;28;20013;-63
2021/08/24 06:30:58;;;;;;;;;;;25.80;60.00;;;;;;4972196;28;20390;-63
2021/08/24 06:33:30;;;;;;;;;;;25.80;60.00;;;;;;4989282;28;19926;-63
2021/08/24 06:35:57;;;;;;;;;;;25.80;60.00;;;;;;4990347;28;19988;-63
2021/08/24 06:38:24;;;;;;;;;;;25.80;60.00;;;;;;4989446;28;19991;-63
2021/08/24 06:40:51;;;;;;;;;;;25.80;60.00;;;;;;4990340;28;19926;-62
2021/08/24 06:43:18;;;;;;;;;;;25.80;60.00;;;;;;4990223;28;20383;-62
2021/08/24 06:45:45;;;;;;;;;;;25.80;60.00;;;;;;4989106;28;20012;-63
2021/08/24 06:48:12;;;;;;;;;;;25.80;60.00;;;;;;5003456;28;19933;-62
2021/08/24 06:50:39;;;;;;;;;;;25.80;60.00;;;;;;4992175;28;20017;-62
2021/08/24 06:53:06;;;;;;;;;;;25.80;60.00;;;;;;4988743;28;19925;-62
2021/08/24 06:55:34;;;;;;;;;;;25.80;59.90;;;;;;4988396;28;19976;-63
2021/08/24 06:58:07;;;;;;;;;;;25.80;59.90;;;;;;4988666;28;19932;-62
2021/08/24 07:00:34;;;;;;;;;;;25.80;60.60;;;;;;4991677;28;19926;-62
2021/08/24 07:03:01;;;;;;;;;;;25.90;59.90;;;;;;4993079;28;19966;-62
2021/08/24 07:05:30;;;;;;;;;;;25.80;59.80;;;;;;4992120;28;19929;-63
2021/08/24 07:07:57;;;;;;;;;;;25.90;59.90;;;;;;4991939;28;19969;-63
2021/08/24 07:10:24;;;;;;;;;;;25.90;59.80;;;;;;4992183;28;19962;-62
2021/08/24 07:12:51;;;;;;;;;;;25.90;59.80;;;;;;4991946;28;20412;-62
2021/08/24 07:15:20;;;;;;;;;;;25.90;59.70;;;;;;4991883;28;20016;-63
2021/08/24 07:17:49;;;;;;;;;;;25.90;59.70;;;;;;4992194;28;20005;-63
2021/08/24 07:20:18;;;;;;;;;;;25.90;59.70;;;;;;4993167;28;19926;-63
2021/08/24 07:22:46;;;;;;;;;;;25.90;59.70;;;;;;4993080;28;20008;-63
2021/08/24 07:25:14;;;;;;;;;;;25.90;59.60;;;;;;4992206;28;19965;-63
2021/08/24 07:27:41;;;;;;;;;;;26.00;59.70;;;;;;4993019;28;19930;-63
2021/08/24 07:30:08;;;;;;;;;;;25.90;59.70;;;;;;4992348;28;19926;-63
2021/08/24 07:32:35;;;;;;;;;;;25.90;59.70;;;;;;4976227;28;19980;-63
2021/08/24 07:35:03;;;;;;;;;;;25.90;59.60;;;;;;4992224;28;19926;-63
2021/08/24 07:37:30;;;;;;;;;;;25.90;59.60;;;;;;4992733;28;19926;-62
2021/08/24 07:39:57;;;;;;;;;;;25.90;59.60;;;;;;4992807;28;20412;-63
2021/08/24 07:42:24;;;;;;;;;;;26.00;59.60;;;;;;4992611;28;19926;-62
2021/08/24 07:44:51;;;;;;;;;;;25.90;59.50;;;;;;4991538;28;19925;-62
2021/08/24 07:47:18;;;;;;;;;;;25.90;59.50;;;;;;4992839;28;19926;-62
2021/08/24 07:49:47;;;;;;;;;;;25.90;59.60;;;;;;4991710;28;19925;-63
2021/08/24 07:52:14;;;;;;;;;;;25.90;59.50;;;;;;4992365;28;19926;-62
2021/08/24 07:54:40;;;;;;;;;;;25.90;59.50;;;;;;4974984;28;19933;-63
2021/08/24 07:57:08;;;;;;;;;;;26.00;59.50;;;;;;4991070;28;20301;-63
2021/08/24 07:59:35;;;;;;;;;;;26.00;59.50;;;;;;4991743;28;19983;-63
2021/08/24 08:02:02;;;;;;;;;;;26.00;59.50;;;;;;4992356;28;19984;-63
2021/08/24 08:04:29;;;;;;;;;;;26.00;59.50;;;;;;4991465;28;19977;-63
2021/08/24 08:06:56;;;;;;;;;;;26.00;59.50;;;;;;4992408;28;19972;-63
2021/08/24 08:09:23;;;;;;;;;;;26.00;59.60;;;;;;4991470;28;19966;-64
2021/08/24 08:11:51;;;;;;;;;;;26.00;59.50;;;;;;4990632;28;19944;-64
2021/08/24 08:14:18;;;;;;;;;;;25.90;59.50;;;;;;4992446;28;20484;-63
2021/08/24 08:16:45;;;;;;;;;;;25.90;59.40;;;;;;4992311;28;20289;-63
2021/08/24 08:19:12;;;;;;;;;;;26.00;59.50;;;;;;4991990;28;19961;-62
2021/08/24 08:21:39;;;;;;;;;;;26.00;59.50;;;;;;4992351;28;19973;-63
2021/08/24 08:24:07;;;;;;;;;;;26.00;59.50;;;;;;4991994;28;20005;-62
2021/08/24 08:26:34;;;;;;;;;;;26.00;59.40;;;;;;4991663;28;19929;-62
2021/08/24 08:29:08;;;;;;;;;;;26.00;59.40;;;;;;4991312;28;19926;-62
2021/08/24 08:31:36;;;;;;;;;;;26.00;59.40;;;;;;4992262;28;19933;-62
2021/08/24 08:34:03;;;;;;;;;;;26.00;59.40;;;;;;4991745;28;19932;-63
2021/08/24 08:36:30;;;;;;;;;;;26.00;59.20;;;;;;4992095;28;19926;-63
2021/08/24 08:38:57;;;;;;;;;;;26.10;59.30;;;;;;4990769;28;20004;-62
2021/08/24 08:41:33;;;;;;;;;;;26.00;59.20;;;;;;4991533;28;20350;-63
2021/08/24 08:44:03;;;;;;;;;;;26.10;59.20;;;;;;4990938;28;20017;-62
2021/08/24 08:46:45;;;;;;;;;;;26.10;59.20;;;;;;4991510;28;19933;-62
2021/08/24 08:49:41;;;;;;;;;;;26.10;59.10;;;;;;4991849;28;20289;-63
2021/08/24 08:52:31;;;;;;;;;;;26.10;59.10;;;;;;4991573;28;20080;-62
2021/08/24 08:55:01;;;;;;;;;;;26.10;59.10;;;;;;4978838;28;20685;-62
2021/08/24 08:57:32;;;;;;;;;;;26.10;59.10;;;;;;4991358;28;19932;-62
2021/08/24 09:00:14;;;;;;;;;;;26.10;59.10;;;;;;4991697;28;19932;-61
2021/08/24 09:02:56;;;;;;;;;;;26.10;59.10;;;;;;4974387;28;19932;-62
2021/08/24 09:05:25;;;;;;;;;;;26.10;59.70;;;;;;4991246;28;20009;-63
2021/08/24 09:07:54;;;;;;;;;;;26.10;59.10;;;;;;4991518;28;19973;-63
2021/08/24 09:10:29;;;;;;;;;;;26.10;59.10;;;;;;4991292;28;19976;-63
2021/08/24 09:12:59;;;;;;;;;;;26.10;59.00;;;;;;4991151;28;19926;-63
2021/08/24 09:15:35;;;;;;;;;;;26.10;59.00;;;;;;4991384;28;20342;-63
2021/08/24 09:18:04;;;;;;;;;;;26.10;59.00;;;;;;4991430;28;19966;-63
2021/08/24 09:20:35;;;;;;;;;;;26.10;59.00;;;;;;4974215;28;19954;-63
2021/08/24 09:23:03;;;;;;;;;;;26.20;59.00;;;;;;4990441;28;19926;-63
2021/08/24 09:25:39;;;;;;;;;;;26.20;59.00;;;;;;4973266;28;19926;-63
2021/08/24 09:28:26;;;;;;;;;;;26.20;58.90;;;;;;4956012;28;20017;-63
2021/08/24 09:30:53;;;;;;;;;;;26.20;58.80;;;;;;4975775;28;20339;-63
2021/08/24 09:33:21;;;;;;;;;;;26.20;58.70;;;;;;4990008;28;20393;-63
2021/08/24 09:35:48;;;;;;;;;;;26.20;58.60;;;;;;4975584;28;20374;-63
2021/08/24 09:38:15;;;;;;;;;;;26.30;58.60;;;;;;4990501;28;19930;-63
2021/08/24 09:40:50;;;;;;;;;;;26.30;58.60;;;;;;4990838;28;20335;-63
2021/08/24 09:43:29;;;;;;;;;;;26.30;58.60;;;;;;4990535;28;19925;-63
2021/08/24 09:46:10;;;;;;;;;;;26.30;58.50;;;;;;4990435;28;20000;-63
2021/08/24 09:48:54;;;;;;;;;;;26.30;58.50;;;;;;4974155;28;19948;-63
2021/08/24 09:51:40;;;;;;;;;;;26.30;58.50;;;;;;4974990;28;19926;-63
2021/08/24 09:54:25;;;;;;;;;;;26.30;58.40;;;;;;4990678;28;19973;-65
2021/08/24 09:56:54;;;;;;;;;;;26.30;58.40;;;;;;4990294;28;19994;-62
2021/08/24 09:59:27;;;;;;;;;;;26.30;58.40;;;;;;4989618;28;20013;-62
2021/08/24 10:01:54;;;;;;;;;;;26.30;58.30;;;;;;4990732;28;19964;-63
2021/08/24 10:04:21;;;;;;;;;;;26.40;58.40;;;;;;4990711;28;19977;-64
2021/08/24 10:06:57;;;;;;;;;;;26.30;58.30;;;;;;4989582;28;19926;-63
2021/08/24 10:09:27;;;;;;;;;;;26.30;58.30;;;;;;4990706;28;20004;-63
2021/08/24 10:12:13;;;;;;;;;;;26.40;58.30;;;;;;4990216;28;20348;-63
2021/08/24 10:14:44;;;;;;;;;;;26.40;58.20;;;;;;4989617;28;19983;-63
2021/08/24 10:17:25;;;;;;;;;;;26.50;58.20;;;;;;4990456;28;19935;-63
2021/08/24 10:19:52;;;;;;;;;;;26.40;58.10;;;;;;4989419;28;20013;-63
2021/08/24 10:22:24;;;;;;;;;;;26.40;58.10;;;;;;4989063;28;19926;-64
2021/08/24 10:24:55;;;;;;;;;;;26.40;58.10;;;;;;4990325;28;19929;-63
2021/08/24 10:27:28;;;;;;;;;;;26.40;58.10;;;;;;4990086;28;19975;-63
2021/08/24 10:29:56;;;;;;;;;;;26.40;58.20;;;;;;4989048;28;19926;-63
2021/08/24 10:32:26;;;;;;;;;;;26.40;58.20;;;;;;4989290;28;20332;-64
2021/08/24 10:34:53;;;;;;;;;;;26.40;58.30;;;;;;4991372;28;20284;-63
2021/08/24 10:37:23;;;;;;;;;;;26.30;58.30;;;;;;4992993;28;20078;-64
2021/08/24 10:39:52;;;;;;;;;;;26.30;58.30;;;;;;4975832;28;19968;-63
2021/08/24 10:42:19;;;;;;;;;;;26.30;58.40;;;;;;4993424;28;20004;-63
2021/08/24 10:44:48;;;;;;;;;;;26.30;58.40;;;;;;4992843;28;19973;-64
2021/08/24 10:47:24;;;;;;;;;;;26.30;58.40;;;;;;4993594;28;19926;-64
2021/08/24 10:49:55;;;;;;;;;;;26.30;58.40;;;;;;4992453;28;19940;-63
2021/08/24 10:52:41;;;;;;;;;;;26.30;58.40;;;;;;4991420;28;19926;-63
2021/08/24 10:55:11;;;;;;;;;;;26.30;58.40;;;;;;4992415;28;19965;-64
2021/08/24 10:57:40;;;;;;;;;;;26.30;58.30;;;;;;4992229;28;19973;-64
2021/08/24 11:00:23;;;;;;;;;;;26.40;58.40;;;;;;4992908;28;19926;-63
2021/08/24 11:03:07;;;;;;;;;;;26.40;58.30;;;;;;4992764;28;19926;-64
2021/08/24 11:05:37;;;;;;;;;;;26.40;58.20;;;;;;4993180;28;19976;-63
2021/08/24 11:08:22;;;;;;;;;;;26.40;58.10;;;;;;4992332;28;19937;-63
2021/08/24 11:10:55;;;;;;;;;;;26.50;58.10;;;;;;4976541;28;19947;-63
2021/08/24 11:13:25;;;;;;;;;;;26.50;58.00;;;;;;4974228;28;19941;-63
2021/08/24 11:15:52;;;;;;;;;;;26.50;57.90;;;;;;4976328;28;19926;-63
2021/08/24 11:18:25;;;;;;;;;;;26.60;57.90;;;;;;4992321;28;20344;-63
2021/08/24 11:20:58;;;;;;;;;;;26.60;57.80;;;;;;4992336;28;19977;-63
2021/08/24 11:23:37;;;;;;;;;;;26.60;57.70;;;;;;4992842;28;19925;-63
2021/08/24 11:26:10;;;;;;;;;;;26.60;57.60;;;;;;4992163;28;20355;-63
2021/08/24 11:29:02;;;;;;;;;;;26.70;57.70;;;;;;4992314;28;20012;-65
2021/08/24 11:31:34;;;;;;;;;;;26.70;57.70;;;;;;4976328;28;19934;-64
2021/08/24 11:34:06;;;;;;;;;;;26.60;57.60;;;;;;4991480;28;19932;-64
2021/08/24 11:36:39;;;;;;;;;;;26.60;57.60;;;;;;4991430;28;19984;-64
2021/08/24 11:39:10;;;;;;;;;;;26.60;57.60;;;;;;4991810;28;19953;-64
2021/08/24 11:41:40;;;;;;;;;;;26.70;57.60;;;;;;4958229;28;19997;-63
2021/08/24 11:44:07;;;;;;;;;;;26.70;57.50;;;;;;4975863;28;19970;-63
2021/08/24 11:46:34;;;;;;;;;;;26.70;57.50;;;;;;4991821;28;19968;-63
2021/08/24 11:49:21;;;;;;;;;;;26.70;57.50;;;;;;4992148;28;20297;-63
2021/08/24 11:51:51;;;;;;;;;;;26.70;57.50;;;;;;4992379;28;19969;-63
2021/08/24 11:54:37;;;;;;;;;;;26.70;57.50;;;;;;5007181;28;19925;-63
2021/08/24 11:57:09;;;;;;;;;;;26.70;57.50;;;;;;4976163;28;20016;-64
2021/08/24 11:59:40;;;;;;;;;;;26.70;57.40;;;;;;4975311;28;19961;-63
2021/08/24 12:02:13;;;;;;;;;;;26.80;57.40;;;;;;4976020;28;19934;-63
2021/08/24 12:04:41;;;;;;;;;;;26.70;57.30;;;;;;4975344;28;19973;-63
2021/08/24 12:07:12;;;;;;;;;;;26.80;57.40;;;;;;4991860;28;19968;-63
2021/08/24 12:09:39;;;;;;;;;;;26.80;57.40;;;;;;4991513;28;20028;-63
2021/08/24 12:12:07;;;;;;;;;;;26.80;57.40;;;;;;4992312;28;20361;-63
2021/08/24 12:14:40;;;;;;;;;;;26.70;57.40;;;;;;4991339;28;20296;-63
2021/08/24 12:17:13;;;;;;;;;;;26.70;57.50;;;;;;4990855;28;20012;-63
2021/08/24 12:19:51;;;;;;;;;;;26.70;57.50;;;;;;4992281;28;19925;-63
2021/08/24 12:22:36;;;;;;;;;;;26.60;57.60;;;;;;4991371;28;19929;-64
2021/08/24 12:25:22;;;;;;;;;;;26.60;57.60;;;;;;4991317;28;19977;-62
2021/08/24 12:27:55;;;;;;;;;;;26.60;57.80;;;;;;4974405;28;19975;-64
2021/08/24 12:30:23;;;;;;;;;;;26.60;57.80;;;;;;4974636;28;20012;-63
2021/08/24 12:32:50;;;;;;;;;;;26.60;57.80;;;;;;4990958;28;19995;-61
2021/08/24 12:35:35;;;;;;;;;;;26.60;57.80;;;;;;4991065;28;20397;-62
2021/08/24 12:38:03;;;;;;;;;;;26.60;57.80;;;;;;4958668;28;24630;-62
2021/08/24 12:40:48;;;;;;;;;;;26.60;57.80;;;;;;4991867;28;20304;-62
2021/08/24 12:43:23;;;;;;;;;;;26.60;57.80;;;;;;4974835;28;19926;-61
2021/08/24 12:46:22;;;;;;;;;;;26.60;57.80;;;;;;4992074;28;19930;-62
2021/08/24 12:49:08;;;;;;;;;;;26.60;57.80;;;;;;4988243;28;19937;-61
2021/08/24 12:51:34;;;;;;;;;;;26.60;57.80;;;;;;4990458;28;19926;-62
2021/08/24 12:54:02;;;;;;;;;;;26.60;57.80;;;;;;4991178;28;19926;-61
2021/08/24 12:56:38;;;;;;;;;;;26.60;57.80;;;;;;4990227;28;20377;-61
2021/08/24 12:59:05;;;;;;;;;;;26.60;57.80;;;;;;4991375;28;19929;-62
2021/08/24 13:01:33;;;;;;;;;;;26.60;57.80;;;;;;4973124;28;20385;-61
2021/08/24 13:04:06;;;;;;;;;;;26.60;57.80;;;;;;4974394;28;20319;-62
2021/08/24 13:06:37;;;;;;;;;;;26.60;57.80;;;;;;4990837;28;20318;-61
2021/08/24 13:09:23;;;;;;;;;;;26.60;57.70;;;;;;4991248;28;19947;-62
2021/08/24 13:12:04;;;;;;;;;;;26.70;57.70;;;;;;4991465;28;19975;-61
2021/08/24 13:14:51;;;;;;;;;;;26.60;57.70;;;;;;4991491;28;20016;-62
2021/08/24 13:17:20;;;;;;;;;;;26.60;57.70;;;;;;4991221;28;20009;-61
2021/08/24 13:19:48;;;;;;;;;;;26.60;57.70;;;;;;4991432;28;19997;-61
2021/08/24 13:22:20;;;;;;;;;;;26.60;57.60;;;;;;4990115;28;19926;-61
2021/08/24 13:24:49;;;;;;;;;;;26.70;57.70;;;;;;4991176;28;20012;-61
2021/08/24 13:27:27;;;;;;;;;;;26.70;57.60;;;;;;4990266;28;19926;-63
2021/08/24 13:29:55;;;;;;;;;;;26.70;57.60;;;;;;4990141;28;19961;-61
2021/08/24 13:32:34;;;;;;;;;;;26.70;57.60;;;;;;4991264;28;20487;-61
2021/08/24 13:35:02;;;;;;;;;;;26.70;57.50;;;;;;4991226;28;19926;-61
2021/08/24 13:37:31;;;;;;;;;;;26.80;57.50;;;;;;4990447;28;19973;-61
2021/08/24 13:40:03;;;;;;;;;;;26.70;57.50;;;;;;4989829;28;19945;-61
2021/08/24 13:42:31;;;;;;;;;;;26.80;57.50;;;;;;4991208;28;19968;-62
2021/08/24 13:44:58;;;;;;;;;;;26.80;57.40;;;;;;4990686;28;19934;-62
2021/08/24 13:47:25;;;;;;;;;;;26.80;57.40;;;;;;4990979;28;20009;-62
2021/08/24 13:49:57;;;;;;;;;;;26.80;57.40;;;;;;4990952;28;20016;-61
2021/08/24 13:52:44;;;;;;;;;;;26.80;57.40;;;;;;4988083;28;19956;-62
2021/08/24 13:55:34;;;;;;;;;;;26.80;57.30;;;;;;4983150;28;19933;-62
2021/08/24 13:58:20;;;;;;;;;;;26.80;57.30;;;;;;4997731;28;20024;-62
2021/08/24 14:00:56;;;;;;;;;;;26.80;57.40;;;;;;4989914;28;19947;-62
2021/08/24 14:03:26;;;;;;;;;;;26.80;57.40;;;;;;4990442;28;19930;-62
2021/08/24 14:05:54;;;;;;;;;;;26.80;57.40;;;;;;4989344;28;19976;-62
2021/08/24 14:08:21;;;;;;;;;;;26.70;57.40;;;;;;4990350;28;19926;-62
2021/08/24 14:10:58;;;;;;;;;;;26.70;57.50;;;;;;4988515;28;20412;-62
2021/08/24 14:13:26;;;;;;;;;;;26.70;57.50;;;;;;4989371;28;19929;-61
2021/08/24 14:15:55;;;;;;;;;;;26.70;57.60;;;;;;4990126;28;19983;-62
2021/08/24 14:18:24;;;;;;;;;;;26.60;57.60;;;;;;4989411;28;20396;-62
2021/08/24 14:20:51;;;;;;;;;;;26.60;57.60;;;;;;4989715;28;19973;-62
2021/08/24 14:23:22;;;;;;;;;;;26.60;57.70;;;;;;4989700;28;19926;-63
2021/08/24 14:25:54;;;;;;;;;;;26.60;57.70;;;;;;4989557;28;19948;-62
2021/08/24 14:28:27;;;;;;;;;;;26.60;57.80;;;;;;4989626;28;19979;-62
2021/08/24 14:30:56;;;;;;;;;;;26.60;57.80;;;;;;4989322;28;19971;-62
2021/08/24 14:33:26;;;;;;;;;;;26.60;57.80;;;;;;4989585;28;19926;-63
2021/08/24 14:36:00;;;;;;;;;;;26.60;57.90;;;;;;4990343;28;19950;-63
2021/08/24 14:38:37;;;;;;;;;;;26.60;57.90;;;;;;4989920;28;19977;-62